Time;durP1;ratioP1;P1;durP2;ratioP2;P2;SDS_P1;SDS_P2;PMS_P1;PMS_P2;Temp;Humidity;BMP_temperature;BMP_pressure;BME280_temperature;BME280_humidity;BME280_pressure;Samples;Min_cycle;Max_cycle;Signal;HPM_P1;HPM_P2
2022/11/20 00:02:06;;;;;;;0.30;0.20;;;;;;;;;;5129230;27;20023;-64
2022/11/20 00:04:33;;;;;;;2.63;0.80;;;;;;;;;;5128943;27;20496;-64
2022/11/20 00:07:00;;;;;;;0.40;0.30;;;;;;;;;;5128969;27;20043;-66
2022/11/20 00:09:26;;;;;;;0.20;0.20;;;;;;;;;;5129577;27;20034;-64
2022/11/20 00:11:53;;;;;;;0.73;0.47;;;;;;;;;;5134033;27;20027;-63
2022/11/20 00:14:20;;;;;;;2.70;0.70;;;;;;;;;;5127909;27;20038;-63
2022/11/20 00:16:46;;;;;;;4.00;0.70;;;;;;;;;;5113142;28;20464;-63
2022/11/20 00:19:13;;;;;;;0.93;0.50;;;;;;;;;;5113696;28;20351;-63
2022/11/20 00:21:40;;;;;;;0.67;0.50;;;;;;;;;;5112541;28;20150;-63
2022/11/20 00:24:07;;;;;;;0.87;0.53;;;;;;;;;;5102508;28;20362;-63
2022/11/20 00:26:33;;;;;;;0.53;0.37;;;;;;;;;;5087764;28;20511;-63
2022/11/20 00:29:01;;;;;;;2.63;0.57;;;;;;;;;;5087675;28;20103;-64
2022/11/20 00:31:28;;;;;;;1.67;0.73;;;;;;;;;;5087776;28;20428;-63
2022/11/20 00:33:55;;;;;;;1.00;0.50;;;;;;;;;;5093482;28;20024;-65
2022/11/20 00:36:23;;;;;;;1.43;0.53;;;;;;;;;;5113315;28;20022;-64
2022/11/20 00:38:53;;;;;;;0.53;0.37;;;;;;;;;;5113189;28;20023;-63
2022/11/20 00:41:20;;;;;;;1.80;0.37;;;;;;;;;;5113216;28;20012;-63
2022/11/20 00:57:18;;;;;;;1.10;0.43;;;;;;;;;;5168332;27;20134;-63
2022/11/20 00:59:45;;;;;;;1.80;0.97;;;;;;;;;;5038084;27;2434218;-61
2022/11/20 01:02:11;;;;;;;1.20;0.73;;;;;;;;;;5124714;28;20053;-61
2022/11/20 01:04:38;;;;;;;0.40;0.33;;;;;;;;;;5124268;28;20083;-61
2022/11/20 01:07:05;;;;;;;1.07;0.63;;;;;;;;;;5124808;28;20035;-61
2022/11/20 01:09:31;;;;;;;0.10;0.10;;;;;;;;;;5129426;28;20540;-61
2022/11/20 01:11:58;;;;;;;0.23;0.20;;;;;;;;;;5130272;28;20023;-63
2022/11/20 01:14:25;;;;;;;6.27;1.17;;;;;;;;;;5130149;28;20495;-61
2022/11/20 01:16:52;;;;;;;1.07;0.40;;;;;;;;;;5130146;28;20495;-61
2022/11/20 01:19:20;;;;;;;1.60;0.50;;;;;;;;;;5130115;28;20123;-61
2022/11/20 01:21:49;;;;;;;3.13;1.07;;;;;;;;;;5124216;28;20445;-62
2022/11/20 01:24:16;;;;;;;0.70;0.50;;;;;;;;;;5124395;28;20377;-61
2022/11/20 01:26:44;;;;;;;1.20;0.80;;;;;;;;;;5124250;28;20042;-61
2022/11/20 01:29:14;;;;;;;1.90;0.40;;;;;;;;;;5124300;28;20027;-61
2022/11/20 01:31:40;;;;;;;3.60;0.50;;;;;;;;;;5128421;28;20496;-61
2022/11/20 01:34:09;;;;;;;0.53;0.33;;;;;;;;;;5129719;28;20028;-61
2022/11/20 01:36:37;;;;;;;1.57;0.50;;;;;;;;;;5129535;28;20015;-63
2022/11/20 01:39:08;;;;;;;0.30;0.30;;;;;;;;;;5128861;28;20093;-61
2022/11/20 01:44:19;;;;;;;;;;;;;;;;;;5107758;28;20038;-61
2022/11/20 01:46:57;;;;;;;0.70;0.43;;;;;;;;;;5103036;28;19916;-62
2022/11/20 01:49:33;;;;;;;0.57;0.40;;;;;;;;;;5102630;28;20023;-62
2022/11/20 01:52:05;;;;;;;0.13;0.13;;;;;;;;;;5103467;28;20020;-62
2022/11/20 01:54:36;;;;;;;0.90;0.40;;;;;;;;;;5108807;28;20058;-61
2022/11/20 01:57:04;;;;;;;0.43;0.40;;;;;;;;;;5102252;28;20035;-61
2022/11/20 01:59:31;;;;;;;1.80;0.90;;;;;;;;;;5095202;28;20413;-62
2022/11/20 02:01:57;;;;;;;0.50;0.40;;;;;;;;;;5094941;28;20035;-61
2022/11/20 02:04:25;;;;;;;0.60;0.40;;;;;;;;;;5095055;28;20030;-61
2022/11/20 02:06:58;;;;;;;2.47;0.53;;;;;;;;;;5089166;28;20038;-61
2022/11/20 02:09:25;;;;;;;2.13;1.30;;;;;;;;;;5089729;28;20543;-61
2022/11/20 02:11:52;;;;;;;7.87;1.77;;;;;;;;;;5089449;28;20024;-61
2022/11/20 02:14:19;;;;;;;1.70;1.37;;;;;;;;;;5089608;28;20529;-61
2022/11/20 02:16:47;;;;;;;7.30;5.17;;;;;;;;;;5094137;28;20031;-61
2022/11/20 02:19:17;;;;;;;7.53;4.73;;;;;;;;;;5094815;28;20110;-61
2022/11/20 02:21:49;;;;;;;6.67;4.27;;;;;;;;;;5094318;28;20111;-62
2022/11/20 02:24:17;;;;;;;1.50;1.00;;;;;;;;;;5094421;28;20031;-62
2022/11/20 02:26:52;;;;;;;0.77;0.50;;;;;;;;;;5094328;28;20038;-61
2022/11/20 02:29:24;;;;;;;3.40;1.15;;;;;;;;;;5088932;28;20361;-62
2022/11/20 02:31:51;;;;;;;0.93;0.53;;;;;;;;;;5089183;28;20108;-61
2022/11/20 02:34:17;;;;;;;2.40;0.43;;;;;;;;;;5089252;28;20099;-61
2022/11/20 02:36:45;;;;;;;0.83;0.67;;;;;;;;;;5088940;28;20107;-61
2022/11/20 02:39:12;;;;;;;0.87;0.70;;;;;;;;;;5093936;28;20028;-61
2022/11/20 02:41:39;;;;;;;1.57;0.80;;;;;;;;;;5094204;28;20373;-61
2022/11/20 02:44:06;;;;;;;1.00;0.70;;;;;;;;;;5094167;28;20066;-61
2022/11/20 02:46:33;;;;;;;1.77;1.30;;;;;;;;;;5093738;28;20056;-62
2022/11/20 02:49:00;;;;;;;2.27;1.20;;;;;;;;;;5094377;28;20035;-61
2022/11/20 02:51:26;;;;;;;1.30;0.80;;;;;;;;;;5088857;28;20034;-61
2022/11/20 02:53:53;;;;;;;3.90;1.67;;;;;;;;;;5088685;28;20020;-62
2022/11/20 02:56:20;;;;;;;2.83;0.97;;;;;;;;;;5088749;28;20020;-61
2022/11/20 02:58:46;;;;;;;6.60;0.93;;;;;;;;;;5088458;28;20123;-61
2022/11/20 03:01:13;;;;;;;0.97;0.63;;;;;;;;;;5093000;28;20382;-61
2022/11/20 03:03:40;;;;;;;1.83;0.40;;;;;;;;;;5093053;28;20024;-62
2022/11/20 03:06:07;;;;;;;1.47;0.90;;;;;;;;;;5093855;28;20110;-61
2022/11/20 03:08:34;;;;;;;1.23;0.67;;;;;;;;;;5093038;28;20035;-61
2022/11/20 03:11:05;;;;;;;1.13;0.50;;;;;;;;;;5093793;28;20032;-61
2022/11/20 03:13:31;;;;;;;3.00;1.13;;;;;;;;;;5089070;28;20120;-61
2022/11/20 03:15:58;;;;;;;1.47;1.00;;;;;;;;;;5088248;28;20028;-61
2022/11/20 03:18:24;;;;;;;22.07;2.03;;;;;;;;;;5088242;28;20027;-61
2022/11/20 03:20:57;;;;;;;2.00;1.07;;;;;;;;;;5087184;28;20136;-61
2022/11/20 03:23:24;;;;;;;1.17;0.93;;;;;;;;;;5092125;28;20028;-61
2022/11/20 03:25:51;;;;;;;8.20;1.73;;;;;;;;;;5093595;28;20032;-61
2022/11/20 03:28:17;;;;;;;2.10;1.37;;;;;;;;;;5093284;28;20067;-61
2022/11/20 03:30:44;;;;;;;1.17;0.83;;;;;;;;;;5093646;28;20031;-61
2022/11/20 03:33:11;;;;;;;4.43;1.37;;;;;;;;;;5093382;28;20099;-61
2022/11/20 03:35:37;;;;;;;0.30;0.30;;;;;;;;;;5089150;28;20059;-62
2022/11/20 03:38:04;;;;;;;0.90;0.40;;;;;;;;;;5087863;28;20028;-61
2022/11/20 03:40:30;;;;;;;0.93;0.73;;;;;;;;;;5087533;28;20475;-61
2022/11/20 03:42:57;;;;;;;3.13;1.03;;;;;;;;;;5087900;28;20032;-61
2022/11/20 03:45:24;;;;;;;1.20;0.90;;;;;;;;;;5090737;28;20063;-61
2022/11/20 03:47:51;;;;;;;0.77;0.70;;;;;;;;;;5093269;28;20055;-61
2022/11/20 03:50:18;;;;;;;0.90;0.60;;;;;;;;;;5092974;28;20035;-61
2022/11/20 03:52:44;;;;;;;1.63;0.60;;;;;;;;;;5093132;28;20028;-61
2022/11/20 03:55:11;;;;;;;2.60;1.07;;;;;;;;;;5092671;28;20343;-61
2022/11/20 03:57:38;;;;;;;3.97;0.77;;;;;;;;;;5089542;28;20020;-61
2022/11/20 04:00:05;;;;;;;0.70;0.50;;;;;;;;;;5082974;28;20024;-61
2022/11/20 04:02:32;;;;;;;14.67;1.30;;;;;;;;;;5086770;28;20032;-61
2022/11/20 04:04:58;;;;;;;2.03;1.10;;;;;;;;;;5087395;28;20043;-61
2022/11/20 04:07:25;;;;;;;2.83;1.13;;;;;;;;;;5089780;28;20051;-61
2022/11/20 04:09:52;;;;;;;1.70;0.87;;;;;;;;;;5092832;28;20031;-62
2022/11/20 04:12:18;;;;;;;1.20;0.80;;;;;;;;;;5092374;28;20074;-61
2022/11/20 04:14:45;;;;;;;0.63;0.50;;;;;;;;;;5092672;28;20057;-61
2022/11/20 04:17:12;;;;;;;0.93;0.80;;;;;;;;;;5092376;28;20012;-61
2022/11/20 04:19:38;;;;;;;1.17;0.70;;;;;;;;;;5089548;28;20085;-61
2022/11/20 04:22:05;;;;;;;0.43;0.43;;;;;;;;;;5087337;28;20598;-61
2022/11/20 04:24:32;;;;;;;15.13;0.97;;;;;;;;;;5087045;28;20107;-62
2022/11/20 04:26:58;;;;;;;3.33;1.00;;;;;;;;;;5087096;28;20103;-61
2022/11/20 04:29:25;;;;;;;0.40;0.30;;;;;;;;;;5087824;28;20039;-61
2022/11/20 04:31:52;;;;;;;7.20;0.93;;;;;;;;;;5092566;28;20065;-61
2022/11/20 04:34:18;;;;;;;0.67;0.43;;;;;;;;;;5092557;28;20093;-61
2022/11/20 04:36:45;;;;;;;1.03;0.60;;;;;;;;;;5092474;28;20019;-61
2022/11/20 04:39:12;;;;;;;0.97;0.80;;;;;;;;;;5092451;28;20444;-61
2022/11/20 04:41:39;;;;;;;1.73;0.93;;;;;;;;;;5090327;28;20050;-61
2022/11/20 04:44:06;;;;;;;4.27;1.33;;;;;;;;;;5086980;28;20027;-61
2022/11/20 04:46:37;;;;;;;0.70;0.40;;;;;;;;;;5086042;28;20478;-61
2022/11/20 04:49:04;;;;;;;4.10;0.83;;;;;;;;;;5086849;28;20032;-61
2022/11/20 04:51:31;;;;;;;1.60;0.80;;;;;;;;;;5088131;28;20028;-61
2022/11/20 04:53:58;;;;;;;0.43;0.40;;;;;;;;;;5092375;28;20044;-61
2022/11/20 04:56:24;;;;;;;0.87;0.60;;;;;;;;;;5092381;28;20093;-61
2022/11/20 04:58:51;;;;;;;0.60;0.33;;;;;;;;;;5092202;28;20030;-61
2022/11/20 05:01:19;;;;;;;0.40;0.30;;;;;;;;;;5091844;28;20035;-61
2022/11/20 05:03:46;;;;;;;0.47;0.40;;;;;;;;;;5090347;28;20029;-61
2022/11/20 05:06:14;;;;;;;2.03;0.57;;;;;;;;;;5086481;28;20032;-61
2022/11/20 05:08:41;;;;;;;0.43;0.30;;;;;;;;;;5086675;28;20032;-61
2022/11/20 05:11:09;;;;;;;1.13;0.70;;;;;;;;;;5086674;28;20044;-61
2022/11/20 05:13:35;;;;;;;0.67;0.43;;;;;;;;;;5086955;28;20482;-60
2022/11/20 05:16:05;;;;;;;2.47;0.30;;;;;;;;;;5092061;28;20016;-61
2022/11/20 05:18:32;;;;;;;0.60;0.30;;;;;;;;;;5091459;28;20039;-62
2022/11/20 05:20:59;;;;;;;0.97;0.40;;;;;;;;;;5091750;28;20012;-61
2022/11/20 05:23:26;;;;;;;0.60;0.50;;;;;;;;;;5092189;28;20027;-60
2022/11/20 05:25:54;;;;;;;1.13;0.67;;;;;;;;;;5091129;28;20378;-61
2022/11/20 05:28:20;;;;;;;2.43;0.70;;;;;;;;;;5086417;28;20504;-61
2022/11/20 05:30:47;;;;;;;0.40;0.40;;;;;;;;;;5086475;28;20028;-61
2022/11/20 05:33:14;;;;;;;0.30;0.27;;;;;;;;;;5089390;28;20023;-61
2022/11/20 05:35:41;;;;;;;0.90;0.60;;;;;;;;;;5089909;28;20024;-62
2022/11/20 05:38:07;;;;;;;0.57;0.43;;;;;;;;;;5095219;28;20027;-61
2022/11/20 05:40:34;;;;;;;1.37;0.60;;;;;;;;;;5095520;28;20032;-62
2022/11/20 05:43:01;;;;;;;0.67;0.33;;;;;;;;;;5095623;28;20107;-61
2022/11/20 05:45:27;;;;;;;0.30;0.30;;;;;;;;;;5095648;28;20463;-61
2022/11/20 05:47:54;;;;;;;1.50;0.57;;;;;;;;;;5095435;28;20051;-61
2022/11/20 05:50:21;;;;;;;0.77;0.43;;;;;;;;;;5089976;28;20032;-61
2022/11/20 05:52:47;;;;;;;1.67;0.70;;;;;;;;;;5089235;28;20035;-62
2022/11/20 05:55:14;;;;;;;0.20;0.20;;;;;;;;;;5089608;28;20036;-61
2022/11/20 05:57:41;;;;;;;0.80;0.50;;;;;;;;;;5089967;28;20020;-61
2022/11/20 06:00:08;;;;;;;0.87;0.43;;;;;;;;;;5093716;28;20035;-61
2022/11/20 06:02:35;;;;;;;0.30;0.20;;;;;;;;;;5094732;28;20090;-62
2022/11/20 06:05:02;;;;;;;0.47;0.30;;;;;;;;;;5095155;28;20528;-60
2022/11/20 06:07:29;;;;;;;0.67;0.43;;;;;;;;;;5095208;28;20107;-61
2022/11/20 06:09:55;;;;;;;0.00;0.00;;;;;;;;;;5094724;28;20031;-62
2022/11/20 06:12:22;;;;;;;0.43;0.40;;;;;;;;;;5089757;28;20031;-61
2022/11/20 06:14:49;;;;;;;0.77;0.50;;;;;;;;;;5089395;28;20024;-61
2022/11/20 06:17:15;;;;;;;0.37;0.37;;;;;;;;;;5089698;28;20067;-61
2022/11/20 06:19:42;;;;;;;0.93;0.53;;;;;;;;;;5089361;28;20020;-61
2022/11/20 06:22:08;;;;;;;0.20;0.20;;;;;;;;;;5093472;28;20448;-61
2022/11/20 06:24:35;;;;;;;0.47;0.43;;;;;;;;;;5094616;28;20422;-61
2022/11/20 06:27:02;;;;;;;2.63;1.00;;;;;;;;;;5094705;28;20492;-61
2022/11/20 06:29:28;;;;;;;0.53;0.40;;;;;;;;;;5094325;28;20032;-61
2022/11/20 06:31:55;;;;;;;1.03;0.60;;;;;;;;;;5094657;28;20027;-61
2022/11/20 06:34:22;;;;;;;0.30;0.23;;;;;;;;;;5090634;28;20378;-61
2022/11/20 06:36:48;;;;;;;0.17;0.13;;;;;;;;;;5089081;28;20530;-61
2022/11/20 06:39:15;;;;;;;0.63;0.50;;;;;;;;;;5089018;28;20028;-61
2022/11/20 06:41:42;;;;;;;1.43;0.83;;;;;;;;;;5089055;28;20173;-61
2022/11/20 06:44:08;;;;;;;0.60;0.43;;;;;;;;;;5091623;28;20384;-61
2022/11/20 06:46:35;;;;;;;0.47;0.40;;;;;;;;;;5093846;28;20513;-61
2022/11/20 06:49:02;;;;;;;0.17;0.10;;;;;;;;;;5094454;28;20555;-61
2022/11/20 06:51:29;;;;;;;4.13;0.60;;;;;;;;;;5094468;28;20046;-61
2022/11/20 06:53:55;;;;;;;0.20;0.20;;;;;;;;;;5094267;28;20027;-61
2022/11/20 06:56:22;;;;;;;1.33;0.77;;;;;;;;;;5090678;28;20093;-61
2022/11/20 06:58:49;;;;;;;0.30;0.20;;;;;;;;;;5088677;28;20467;-60
2022/11/20 07:01:16;;;;;;;3.53;0.30;;;;;;;;;;5088826;28;20409;-61
2022/11/20 07:03:43;;;;;;;0.30;0.30;;;;;;;;;;5087976;28;20062;-61
2022/11/20 07:06:10;;;;;;;0.80;0.50;;;;;;;;;;5090736;28;20030;-61
2022/11/20 07:08:37;;;;;;;0.33;0.33;;;;;;;;;;5093942;28;20024;-61
2022/11/20 07:11:05;;;;;;;0.50;0.40;;;;;;;;;;5093571;28;20016;-61
2022/11/20 07:13:32;;;;;;;0.47;0.30;;;;;;;;;;5093726;28;20108;-60
2022/11/20 07:16:02;;;;;;;6.83;1.07;;;;;;;;;;5093956;28;20031;-61
2022/11/20 07:18:29;;;;;;;0.70;0.57;;;;;;;;;;5090713;28;20016;-61
2022/11/20 07:20:56;;;;;;;0.47;0.47;;;;;;;;;;5087994;28;20359;-61
2022/11/20 07:23:23;;;;;;;0.87;0.47;;;;;;;;;;5088075;28;20024;-60
2022/11/20 07:25:49;;;;;;;1.17;0.70;;;;;;;;;;5088110;28;20042;-60
2022/11/20 07:28:16;;;;;;;0.50;0.40;;;;;;;;;;5090136;28;20024;-60
2022/11/20 07:30:43;;;;;;;0.87;0.60;;;;;;;;;;5093163;28;20024;-60
2022/11/20 07:33:09;;;;;;;0.73;0.63;;;;;;;;;;5093257;28;20039;-60
2022/11/20 07:35:36;;;;;;;0.67;0.40;;;;;;;;;;5093184;28;20028;-61
2022/11/20 07:38:03;;;;;;;0.73;0.43;;;;;;;;;;5093174;28;20020;-61
2022/11/20 07:40:29;;;;;;;4.27;0.93;;;;;;;;;;5091143;28;20477;-60
2022/11/20 07:42:56;;;;;;;2.00;0.33;;;;;;;;;;5087778;28;20380;-60
2022/11/20 07:45:24;;;;;;;5.10;0.93;;;;;;;;;;5087559;28;20027;-60
2022/11/20 07:47:51;;;;;;;0.80;0.50;;;;;;;;;;5087453;28;20030;-61
2022/11/20 07:50:18;;;;;;;0.40;0.37;;;;;;;;;;5087858;28;20050;-60
2022/11/20 07:52:45;;;;;;;2.43;0.83;;;;;;;;;;5092745;28;20378;-61
2022/11/20 07:55:11;;;;;;;0.47;0.47;;;;;;;;;;5092516;28;20028;-60
2022/11/20 07:57:38;;;;;;;1.10;0.83;;;;;;;;;;5092957;28;20020;-60
2022/11/20 08:00:08;;;;;;;0.40;0.33;;;;;;;;;;5092832;28;20115;-61
2022/11/20 08:02:35;;;;;;;1.03;0.77;;;;;;;;;;5091135;28;20077;-60
2022/11/20 08:05:01;;;;;;;1.13;0.80;;;;;;;;;;5086900;28;20059;-60
2022/11/20 08:07:28;;;;;;;1.17;0.70;;;;;;;;;;5087535;28;20032;-60
2022/11/20 08:09:55;;;;;;;0.33;0.33;;;;;;;;;;5086960;28;20434;-61
2022/11/20 08:15:07;;;;;;;0.40;0.32;;;;;;;;;;5092842;28;20086;-61
2022/11/20 08:17:33;;;;;;;1.43;0.57;;;;;;;;;;5092763;28;20112;-60
2022/11/20 08:20:00;;;;;;;0.20;0.20;;;;;;;;;;5092621;28;20027;-60
2022/11/20 08:22:27;;;;;;;0.20;0.20;;;;;;;;;;5092243;28;20024;-61
2022/11/20 08:24:53;;;;;;;0.37;0.33;;;;;;;;;;5090884;28;20070;-60
2022/11/20 08:27:20;;;;;;;1.17;0.70;;;;;;;;;;5087053;28;20127;-60
2022/11/20 08:29:47;;;;;;;0.63;0.43;;;;;;;;;;5086874;28;20058;-60
2022/11/20 08:32:13;;;;;;;0.90;0.60;;;;;;;;;;5087053;28;20095;-60
2022/11/20 08:34:40;;;;;;;1.17;0.40;;;;;;;;;;5087928;28;20031;-60
2022/11/20 08:37:07;;;;;;;0.10;0.10;;;;;;;;;;5092392;28;20020;-60
2022/11/20 08:39:33;;;;;;;0.30;0.30;;;;;;;;;;5092450;28;20099;-60
2022/11/20 08:42:00;;;;;;;0.30;0.30;;;;;;;;;;5091878;28;20099;-60
2022/11/20 08:44:27;;;;;;;0.00;0.00;;;;;;;;;;5092543;28;20020;-60
2022/11/20 08:46:53;;;;;;;0.43;0.30;;;;;;;;;;5091267;28;20532;-60
2022/11/20 08:49:21;;;;;;;3.50;0.73;;;;;;;;;;5086751;28;20446;-60
2022/11/20 08:51:51;;;;;;;0.70;0.50;;;;;;;;;;5086761;28;20325;-60
2022/11/20 08:54:21;;;;;;;1.17;0.80;;;;;;;;;;5086827;28;20020;-60
2022/11/20 08:56:47;;;;;;;0.73;0.57;;;;;;;;;;5086648;28;20028;-60
2022/11/20 08:59:14;;;;;;;1.43;0.80;;;;;;;;;;5092365;28;20024;-60
2022/11/20 09:01:41;;;;;;;1.13;0.40;;;;;;;;;;5092177;28;20502;-60
2022/11/20 09:04:07;;;;;;;0.50;0.43;;;;;;;;;;5091792;28;20036;-60
2022/11/20 09:06:34;;;;;;;0.37;0.37;;;;;;;;;;5092385;28;20040;-60
2022/11/20 09:09:01;;;;;;;1.33;0.87;;;;;;;;;;5095841;28;20024;-61
2022/11/20 09:11:27;;;;;;;0.17;0.17;;;;;;;;;;5090739;28;20020;-60
2022/11/20 09:13:54;;;;;;;0.63;0.40;;;;;;;;;;5090346;28;20074;-60
2022/11/20 09:16:21;;;;;;;1.30;0.63;;;;;;;;;;5090921;28;20401;-60
2022/11/20 09:18:47;;;;;;;1.17;0.77;;;;;;;;;;5090578;28;20401;-60
2022/11/20 09:21:14;;;;;;;0.90;0.47;;;;;;;;;;5095770;28;20024;-60
2022/11/20 09:23:41;;;;;;;0.50;0.40;;;;;;;;;;5095568;28;20089;-60
2022/11/20 09:26:10;;;;;;;1.43;0.53;;;;;;;;;;5095869;28;20538;-60
2022/11/20 09:28:37;;;;;;;0.77;0.53;;;;;;;;;;5096011;28;20077;-60
2022/11/20 09:31:07;;;;;;;0.47;0.43;;;;;;;;;;5095233;28;20024;-60
2022/11/20 09:33:34;;;;;;;1.27;0.57;;;;;;;;;;5090224;28;20054;-60
2022/11/20 09:36:01;;;;;;;4.60;1.17;;;;;;;;;;5089806;28;20031;-59
2022/11/20 09:38:27;;;;;;;0.30;0.30;;;;;;;;;;5090022;28;20111;-60
2022/11/20 09:40:57;;;;;;;2.17;0.70;;;;;;;;;;5089913;28;20028;-60
2022/11/20 09:43:27;;;;;;;0.50;0.40;;;;;;;;;;5094579;28;20059;-60
2022/11/20 09:46:03;;;;;;;4.37;0.53;;;;;;;;;;5095126;28;20402;-60
2022/11/20 09:48:45;;;;;;;1.93;0.43;;;;;;;;;;5095577;28;20028;-60
2022/11/20 09:51:21;;;;;;;1.03;0.63;;;;;;;;;;5095671;28;20032;-60
2022/11/20 09:54:07;;;;;;;1.47;0.97;;;;;;;;;;5093801;28;20027;-60
2022/11/20 09:56:35;;;;;;;0.20;0.20;;;;;;;;;;5089847;28;20024;-60
2022/11/20 09:59:05;;;;;;;1.10;0.70;;;;;;;;;;5089872;28;20047;-60
2022/11/20 10:01:34;;;;;;;1.13;0.63;;;;;;;;;;5089372;28;20028;-60
2022/11/20 10:04:07;;;;;;;0.80;0.60;;;;;;;;;;5090825;28;20031;-60
2022/11/20 10:06:45;;;;;;;0.10;0.10;;;;;;;;;;5095292;28;20393;-59
2022/11/20 10:09:19;;;;;;;0.80;0.60;;;;;;;;;;5095220;28;20037;-60
2022/11/20 10:11:46;;;;;;;0.30;0.30;;;;;;;;;;5095013;28;20023;-59
2022/11/20 10:14:19;;;;;;;0.47;0.40;;;;;;;;;;5095032;28;20030;-59
2022/11/20 10:17:04;;;;;;;0.70;0.60;;;;;;;;;;5092340;28;20032;-60
2022/11/20 10:19:40;;;;;;;3.45;0.80;;;;;;;;;;5089117;28;20028;-60
2022/11/20 10:22:35;;;;;;;0.83;0.57;;;;;;;;;;5089077;28;20058;-59
2022/11/20 10:25:07;;;;;;;1.85;0.75;;;;;;;;;;5016913;28;20515;-60
2022/11/20 10:27:42;;;;;;;1.60;1.13;;;;;;;;;;5093262;28;20024;-59
2022/11/20 10:30:10;;;;;;;0.52;0.52;;;;;;;;;;5094646;28;20095;-60
2022/11/20 10:32:55;;;;;;;0.30;0.30;;;;;;;;;;5094348;28;20034;-59
2022/11/20 10:35:44;;;;;;;0.77;0.50;;;;;;;;;;5094665;28;20402;-59
2022/11/20 10:38:16;;;;;;;1.03;0.60;;;;;;;;;;5094127;28;20028;-60
2022/11/20 10:40:45;;;;;;;0.70;0.53;;;;;;;;;;5089125;28;20020;-60
2022/11/20 10:43:17;;;;;;;1.07;0.83;;;;;;;;;;5088937;28;20028;-60
2022/11/20 10:45:46;;;;;;;0.77;0.60;;;;;;;;;;5088881;28;20516;-59
2022/11/20 10:48:24;;;;;;;0.97;0.73;;;;;;;;;;5088938;28;20107;-60
2022/11/20 10:51:05;;;;;;;0.60;0.47;;;;;;;;;;5093703;28;20483;-60
2022/11/20 10:53:46;;;;;;;8.23;0.70;;;;;;;;;;5094462;28;20024;-59
2022/11/20 10:56:20;;;;;;;0.30;0.30;;;;;;;;;;5094406;28;20036;-59
2022/11/20 10:58:53;;;;;;;4.33;0.93;;;;;;;;;;5093695;28;20420;-60
2022/11/20 11:01:23;;;;;;;1.23;0.60;;;;;;;;;;5091586;28;20381;-59
2022/11/20 11:03:54;;;;;;;4.80;1.23;;;;;;;;;;5088256;28;20036;-59
2022/11/20 11:06:24;;;;;;;1.03;0.80;;;;;;;;;;5088256;28;20481;-59
2022/11/20 11:08:52;;;;;;;2.00;1.37;;;;;;;;;;5088425;28;20073;-59
2022/11/20 11:11:22;;;;;;;0.60;0.53;;;;;;;;;;5090205;28;20375;-60
2022/11/20 11:13:49;;;;;;;0.63;0.57;;;;;;;;;;5093968;28;20099;-59
2022/11/20 11:16:23;;;;;;;0.73;0.43;;;;;;;;;;5093734;28;20091;-59
2022/11/20 11:18:49;;;;;;;0.35;0.35;;;;;;;;;;5093843;28;20024;-59
2022/11/20 11:21:26;;;;;;;2.30;1.37;;;;;;;;;;5093606;28;20052;-59
2022/11/20 11:24:03;;;;;;;0.80;0.60;;;;;;;;;;5089960;28;20543;-60
2022/11/20 11:26:29;;;;;;;0.73;0.53;;;;;;;;;;5088073;28;20063;-59
2022/11/20 11:29:04;;;;;;;1.83;1.10;;;;;;;;;;5087784;28;20073;-59
2022/11/20 11:31:35;;;;;;;0.70;0.57;;;;;;;;;;5087878;28;20024;-60
2022/11/20 11:34:07;;;;;;;1.00;0.80;;;;;;;;;;5090989;28;20470;-60
2022/11/20 11:36:35;;;;;;;1.47;1.20;;;;;;;;;;5093327;28;20020;-59
2022/11/20 11:39:02;;;;;;;1.43;1.17;;;;;;;;;;5093653;28;20367;-59
2022/11/20 11:41:32;;;;;;;4.23;1.83;;;;;;;;;;5093033;28;20039;-59
2022/11/20 11:47:01;;;;;;;1.47;1.20;;;;;;;;;;5053981;28;20063;-59
2022/11/20 11:49:27;;;;;;;3.03;1.47;;;;;;;;;;5087646;28;20039;-61
2022/11/20 11:52:06;;;;;;;2.40;1.40;;;;;;;;;;5087560;28;20386;-59
2022/11/20 11:54:36;;;;;;;3.07;1.73;;;;;;;;;;5087478;28;20069;-60
2022/11/20 11:57:06;;;;;;;3.27;1.83;;;;;;;;;;5092337;28;20477;-59
2022/11/20 11:59:45;;;;;;;1.97;1.40;;;;;;;;;;5092660;28;20474;-60
2022/11/20 12:02:41;;;;;;;3.43;2.00;;;;;;;;;;5093167;28;20016;-59
2022/11/20 12:05:28;;;;;;;2.50;1.93;;;;;;;;;;5021001;28;20046;-59
2022/11/20 12:07:57;;;;;;;7.40;2.40;;;;;;;;;;5090877;28;20043;-60
2022/11/20 12:10:34;;;;;;;5.47;1.90;;;;;;;;;;5087370;28;20058;-59
2022/11/20 12:13:19;;;;;;;1.50;0.80;;;;;;;;;;5087158;28;20089;-59
2022/11/20 12:15:47;;;;;;;2.53;1.80;;;;;;;;;;5087422;28;20107;-59
2022/11/20 12:18:21;;;;;;;2.07;1.37;;;;;;;;;;5089663;28;20047;-59
2022/11/20 12:21:11;;;;;;;1.90;1.13;;;;;;;;;;5092130;28;20032;-60
2022/11/20 12:23:43;;;;;;;6.03;2.33;;;;;;;;;;5065538;28;20390;-59
2022/11/20 12:26:29;;;;;;;2.27;1.50;;;;;;;;;;5092687;28;20459;-59
2022/11/20 12:29:10;;;;;;;3.83;2.20;;;;;;;;;;5092384;28;20027;-59
2022/11/20 12:32:09;;;;;;;2.27;1.77;;;;;;;;;;5087215;28;20058;-59
2022/11/20 12:34:42;;;;;;;2.07;1.20;;;;;;;;;;5031717;28;20510;-59
2022/11/20 12:37:12;;;;;;;3.23;1.50;;;;;;;;;;5087056;28;20028;-59
2022/11/20 12:39:49;;;;;;;1.83;1.17;;;;;;;;;;5086931;28;20024;-59
2022/11/20 12:45:32;;;;;;;1.73;1.10;;;;;;;;;;5092179;28;20097;-59
2022/11/20 12:48:25;;;;;;;0.65;0.43;;;;;;;;;;5092317;28;20530;-59
2022/11/20 12:51:01;;;;;;;2.20;1.23;;;;;;;;;;5092327;28;20016;-59
2022/11/20 12:53:46;;;;;;;1.93;1.17;;;;;;;;;;5087856;28;20563;-59
2022/11/20 12:56:31;;;;;;;1.52;1.10;;;;;;;;;;5086255;28;20031;-59
2022/11/20 12:58:58;;;;;;;;;;;;;;;;;;5087344;28;20377;-59
2022/11/20 13:01:39;;;;;;;1.53;0.60;;;;;;;;;;5086415;28;19934;-59
2022/11/20 13:04:24;;;;;;;1.07;0.60;;;;;;;;;;5091400;28;20016;-60
2022/11/20 13:06:51;;;;;;;1.05;0.80;;;;;;;;;;5091975;28;20497;-59
2022/11/20 13:09:24;;;;;;;0.63;0.53;;;;;;;;;;5092276;28;20031;-59
2022/11/20 13:12:15;;;;;;;2.37;0.83;;;;;;;;;;5092177;28;20095;-59
2022/11/20 13:14:46;;;;;;;2.63;0.60;;;;;;;;;;5090128;28;20024;-60
2022/11/20 13:17:18;;;;;;;0.50;0.50;;;;;;;;;;5086480;28;20028;-59
2022/11/20 13:19:55;;;;;;;0.53;0.50;;;;;;;;;;5086014;28;20487;-59
2022/11/20 13:22:28;;;;;;;1.63;0.73;;;;;;;;;;5086126;28;20445;-59
2022/11/20 13:24:55;;;;;;;1.07;0.87;;;;;;;;;;5088489;28;20032;-59
2022/11/20 13:27:23;;;;;;;1.80;0.53;;;;;;;;;;5091916;28;20032;-59
2022/11/20 13:30:13;;;;;;;0.67;0.57;;;;;;;;;;5092009;28;20024;-59
2022/11/20 13:32:48;;;;;;;1.17;0.73;;;;;;;;;;5091715;28;20020;-59
2022/11/20 13:35:25;;;;;;;3.40;1.50;;;;;;;;;;5092019;28;20030;-59
2022/11/20 13:50:52;;;;;;;5.57;4.28;;;;;;;;;;5038790;27;2859699;-60
2022/11/20 13:53:48;;;;;;;5.30;2.87;;;;;;;;;;5104369;28;20035;-60
2022/11/20 13:56:24;;;;;;;4.93;3.10;;;;;;;;;;5014438;28;20081;-60
2022/11/20 13:58:56;;;;;;;7.20;2.93;;;;;;;;;;5104247;28;20032;-60
2022/11/20 14:01:27;;;;;;;3.40;2.23;;;;;;;;;;5091055;28;20047;-59
2022/11/20 14:03:54;;;;;;;3.37;2.10;;;;;;;;;;5089359;28;20039;-60
2022/11/20 14:06:31;;;;;;;6.20;2.63;;;;;;;;;;5089359;28;20032;-59
2022/11/20 14:08:58;;;;;;;3.73;2.37;;;;;;;;;;5089426;28;20050;-60
2022/11/20 14:11:26;;;;;;;7.67;2.20;;;;;;;;;;5089102;28;20016;-59
2022/11/20 14:13:54;;;;;;;3.30;2.30;;;;;;;;;;5087044;28;20352;-59
2022/11/20 14:16:21;;;;;;;4.23;2.00;;;;;;;;;;5083611;28;20028;-60
2022/11/20 14:18:48;;;;;;;3.07;2.10;;;;;;;;;;5083205;28;20467;-60
2022/11/20 14:21:25;;;;;;;1.80;1.60;;;;;;;;;;5083700;28;20082;-60
2022/11/20 14:24:03;;;;;;;2.60;1.87;;;;;;;;;;5085295;28;20021;-59
2022/11/20 14:26:30;;;;;;;3.83;2.40;;;;;;;;;;5088570;28;20020;-60
2022/11/20 14:28:57;;;;;;;3.57;2.50;;;;;;;;;;5088698;28;20078;-60
2022/11/20 14:31:25;;;;;;;3.87;1.90;;;;;;;;;;5088791;28;20031;-60
2022/11/20 14:33:52;;;;;;;4.07;2.97;;;;;;;;;;5088687;28;20378;-59
2022/11/20 14:36:21;;;;;;;2.93;1.83;;;;;;;;;;5086480;28;20021;-61
2022/11/20 14:38:48;;;;;;;4.90;3.20;;;;;;;;;;5082884;28;20043;-60
2022/11/20 14:41:19;;;;;;;3.23;2.10;;;;;;;;;;5083034;28;20048;-59
2022/11/20 14:43:47;;;;;;;4.30;2.00;;;;;;;;;;5083166;28;20055;-60
2022/11/20 14:46:13;;;;;;;3.43;2.23;;;;;;;;;;5084841;28;20103;-59
2022/11/20 14:48:42;;;;;;;3.60;1.57;;;;;;;;;;5088355;28;20021;-60
2022/11/20 14:51:12;;;;;;;2.07;1.60;;;;;;;;;;5078531;28;20103;-60
2022/11/20 14:53:39;;;;;;;15.60;2.23;;;;;;;;;;5074941;28;20017;-59
2022/11/20 14:56:06;;;;;;;2.40;1.53;;;;;;;;;;5074359;28;20020;-60
2022/11/20 14:58:34;;;;;;;1.67;1.10;;;;;;;;;;5071854;28;20059;-61
2022/11/20 15:01:05;;;;;;;1.93;1.43;;;;;;;;;;5069077;28;20036;-60
2022/11/20 15:03:41;;;;;;;2.27;1.37;;;;;;;;;;5069260;28;20099;-60
2022/11/20 15:06:10;;;;;;;2.00;1.17;;;;;;;;;;5069401;28;20021;-60
2022/11/20 15:08:37;;;;;;;3.90;1.37;;;;;;;;;;5070989;28;20112;-60
2022/11/20 15:11:04;;;;;;;3.80;1.57;;;;;;;;;;5074579;28;20498;-60
2022/11/20 15:13:32;;;;;;;3.57;1.83;;;;;;;;;;5074702;28;20054;-60
2022/11/20 15:16:02;;;;;;;3.40;1.87;;;;;;;;;;5074495;28;20044;-60
2022/11/20 15:18:33;;;;;;;3.70;2.27;;;;;;;;;;5074418;28;20100;-60
2022/11/20 15:21:02;;;;;;;1.50;1.20;;;;;;;;;;5071409;28;20048;-60
2022/11/20 15:23:29;;;;;;;2.33;1.50;;;;;;;;;;5068240;28;20021;-60
2022/11/20 15:25:56;;;;;;;1.50;1.20;;;;;;;;;;5069043;28;20441;-60
2022/11/20 15:28:23;;;;;;;3.20;1.67;;;;;;;;;;5068840;28;20016;-61
2022/11/20 15:30:50;;;;;;;2.13;1.27;;;;;;;;;;5071043;28;20021;-61
2022/11/20 15:33:17;;;;;;;1.77;1.33;;;;;;;;;;5074367;28;20029;-60
2022/11/20 15:35:45;;;;;;;8.63;1.17;;;;;;;;;;5074310;28;20095;-60